createdAt,value
2017-05-31T00:00:03.396Z,0
2017-05-31T00:05:02.659Z,0
2017-05-31T00:10:03.290Z,0
2017-05-31T00:15:02.830Z,0
2017-05-31T00:20:02.615Z,0
2017-05-31T00:25:03.313Z,0
2017-05-31T00:30:03.099Z,0
2017-05-31T00:35:02.958Z,0
2017-05-31T00:40:02.503Z,0
2017-05-31T00:45:03.085Z,0
2017-05-31T00:50:02.866Z,0
2017-05-31T00:55:03.390Z,0
2017-05-31T01:00:03.209Z,0
2017-05-31T01:05:02.694Z,0
2017-05-31T01:10:02.520Z,0
2017-05-31T01:15:03.172Z,0
2017-05-31T01:20:03.043Z,0
2017-05-31T01:25:02.699Z,0
2017-05-31T01:30:03.369Z,0
2017-05-31T01:35:02.929Z,0
2017-05-31T01:40:02.792Z,0
2017-05-31T01:45:02.447Z,0
2017-05-31T01:50:03.053Z,0
2017-05-31T01:55:02.568Z,0
2017-05-31T02:00:03.131Z,0
2017-05-31T02:05:02.911Z,0
2017-05-31T02:10:02.620Z,0
2017-05-31T02:15:02.518Z,0
2017-05-31T02:20:03.256Z,0
2017-05-31T02:25:02.769Z,0
2017-05-31T02:30:03.335Z,0
2017-05-31T02:35:02.943Z,0
2017-05-31T02:40:02.647Z,1
2017-05-31T02:45:03.334Z,2
2017-05-31T02:50:02.934Z,6
2017-05-31T02:55:02.657Z,12
2017-05-31T03:00:03.356Z,26
2017-05-31T03:05:03.003Z,36
2017-05-31T03:10:02.855Z,46
2017-05-31T03:15:02.521Z,51
2017-05-31T03:20:03.174Z,56
2017-05-31T03:25:02.686Z,59
2017-05-31T03:30:03.177Z,66
2017-05-31T03:35:02.678Z,97
2017-05-31T03:40:03.158Z,143
2017-05-31T03:45:02.704Z,269
2017-05-31T03:50:03.114Z,299
2017-05-31T03:55:02.440Z,337
2017-05-31T04:00:02.846Z,328
2017-05-31T04:05:03.524Z,541
2017-05-31T04:10:03.008Z,662
2017-05-31T04:15:03.419Z,807
2017-05-31T04:20:02.792Z,785
2017-05-31T04:25:03.353Z,761
2017-05-31T04:30:02.769Z,834
2017-05-31T04:35:03.299Z,884
2017-05-31T04:40:02.778Z,1000
2017-05-31T04:45:03.200Z,1000
2017-05-31T04:50:02.719Z,1000
2017-05-31T04:55:03.149Z,2000
2017-05-31T05:00:02.557Z,2000
2017-05-31T05:05:03.161Z,2000
2017-05-31T05:10:02.780Z,2000
2017-05-31T05:15:03.152Z,3000
2017-05-31T05:20:02.703Z,3000
2017-05-31T05:25:03.115Z,3000
2017-05-31T05:30:02.668Z,3000
2017-05-31T05:35:03.142Z,3000
2017-05-31T05:40:02.800Z,3000
2017-05-31T05:45:03.203Z,2000
2017-05-31T05:50:02.687Z,2000
2017-05-31T05:55:03.057Z,2000
2017-05-31T06:00:02.450Z,2000
2017-05-31T06:05:02.953Z,2000
2017-05-31T06:10:03.413Z,2000
2017-05-31T06:15:02.997Z,3000
2017-05-31T06:20:02.426Z,3000
2017-05-31T06:25:02.942Z,3000
2017-05-31T06:30:03.379Z,3000
2017-05-31T06:35:02.885Z,3000
2017-05-31T06:40:03.355Z,3000
2017-05-31T06:45:02.677Z,3000
2017-05-31T06:50:03.056Z,3000
2017-05-31T06:55:02.474Z,3000
2017-05-31T07:00:03.066Z,3000
2017-05-31T07:05:02.677Z,3000
2017-05-31T07:10:03.330Z,3000
2017-05-31T07:15:02.873Z,4000
2017-05-31T07:20:02.486Z,4000
2017-05-31T07:25:03.086Z,4000
2017-05-31T07:30:02.575Z,5000
2017-05-31T07:35:03.167Z,6000
2017-05-31T07:40:02.565Z,7000
2017-05-31T07:45:03.123Z,44000
2017-05-31T07:50:02.480Z,45000
2017-05-31T07:55:03.076Z,49000
2017-05-31T08:00:02.615Z,24000
2017-05-31T08:05:03.170Z,32000
2017-05-31T08:10:02.824Z,36000
2017-05-31T08:15:03.290Z,32000
2017-05-31T08:20:02.880Z,41000
2017-05-31T08:30:03.167Z,56000
2017-05-31T08:40:03.434Z,52000
2017-05-31T08:45:03.038Z,53000
2017-05-31T08:50:02.565Z,54000
2017-05-31T08:55:03.285Z,12000
2017-05-31T09:00:03.131Z,16000
2017-05-31T09:05:03.259Z,20000
2017-05-31T09:10:02.661Z,22000
2017-05-31T09:15:02.877Z,11000
2017-05-31T09:20:02.910Z,11000
2017-05-31T09:25:02.504Z,55000
2017-05-31T09:35:02.510Z,44000
2017-05-31T09:40:02.984Z,13000
2017-05-31T09:45:03.316Z,15000
2017-05-31T09:50:02.878Z,18000
2017-05-31T09:55:02.761Z,13000
2017-05-31T10:00:03.030Z,9000
2017-05-31T10:05:02.608Z,10000
2017-05-31T10:10:02.472Z,8000
2017-05-31T10:15:02.973Z,28000
2017-05-31T10:20:02.585Z,53000
2017-05-31T10:25:02.797Z,32000
2017-05-31T10:30:03.128Z,11000
2017-05-31T10:35:03.179Z,10000
2017-05-31T10:40:02.791Z,54000
2017-05-31T10:45:02.914Z,12000
2017-05-31T10:50:03.388Z,7000
2017-05-31T10:55:02.733Z,7000
2017-05-31T11:00:03.290Z,54000
2017-05-31T11:05:02.651Z,34000
2017-05-31T11:10:03.167Z,26000
2017-05-31T11:15:02.533Z,29000
2017-05-31T11:20:02.874Z,18000
2017-05-31T11:25:03.226Z,52000
2017-05-31T11:30:02.674Z,20000
2017-05-31T11:35:03.085Z,10000
2017-05-31T11:40:03.419Z,18000
2017-05-31T11:45:02.871Z,11000
2017-05-31T11:50:03.397Z,54000
2017-05-31T11:55:02.979Z,30000
2017-05-31T12:00:02.488Z,9000
2017-05-31T12:05:03.086Z,5000
2017-05-31T12:10:02.737Z,7000
2017-05-31T12:15:02.915Z,8000
2017-05-31T12:20:03.382Z,7000
2017-05-31T12:25:02.916Z,9000
2017-05-31T12:30:02.601Z,53000
2017-05-31T12:35:02.989Z,53000
2017-05-31T12:40:02.519Z,10000
2017-05-31T12:45:03.160Z,10000
2017-05-31T12:50:02.585Z,12000
2017-05-31T12:55:03.086Z,25000
2017-05-31T13:00:02.582Z,35000
2017-05-31T13:05:03.175Z,12000
2017-05-31T13:10:02.749Z,12000
2017-05-31T13:15:03.377Z,6000
2017-05-31T13:20:02.928Z,3000
2017-05-31T13:25:03.209Z,2000
2017-05-31T13:30:02.775Z,3000
2017-05-31T13:35:03.238Z,5000
2017-05-31T13:40:02.833Z,29000
2017-05-31T13:45:02.534Z,33000
2017-05-31T13:50:03.105Z,23000
2017-05-31T13:55:02.882Z,8000
2017-05-31T14:00:03.298Z,9000
2017-05-31T14:05:02.683Z,12000
2017-05-31T14:10:03.382Z,9000
2017-05-31T14:15:03.156Z,8000
2017-05-31T14:20:02.720Z,8000
2017-05-31T14:25:03.163Z,8000
2017-05-31T14:30:03.349Z,10000
2017-05-31T14:35:02.970Z,12000
2017-05-31T14:40:02.418Z,12000
2017-05-31T14:45:02.930Z,32000
2017-05-31T14:50:03.377Z,20000
2017-05-31T14:55:03.102Z,29000
2017-05-31T15:00:02.561Z,27000
2017-05-31T15:05:03.160Z,8000
2017-05-31T15:10:02.760Z,6000
2017-05-31T15:15:03.439Z,7000
2017-05-31T15:20:02.958Z,27000
2017-05-31T15:25:02.674Z,26000
2017-05-31T15:30:02.899Z,9000
2017-05-31T15:35:03.296Z,10000
2017-05-31T15:40:02.952Z,25000
2017-05-31T15:45:02.481Z,25000
2017-05-31T15:50:02.922Z,24000
2017-05-31T15:55:02.590Z,14000
2017-05-31T16:00:03.135Z,20000
2017-05-31T16:05:02.734Z,20000
2017-05-31T16:10:02.473Z,5000
2017-05-31T16:15:02.925Z,4000
2017-05-31T16:20:02.670Z,6000
2017-05-31T16:25:03.214Z,9000
2017-05-31T16:30:02.705Z,8000
2017-05-31T16:35:03.178Z,14000
2017-05-31T16:40:02.698Z,14000
2017-05-31T16:45:03.138Z,13000
2017-05-31T16:50:02.710Z,11000
2017-05-31T16:55:02.469Z,11000
2017-05-31T17:00:03.016Z,10000
2017-05-31T17:05:02.485Z,10000
2017-05-31T17:10:03.245Z,6000
2017-05-31T17:15:02.819Z,7000
2017-05-31T17:20:03.421Z,3000
2017-05-31T17:25:02.890Z,8000
2017-05-31T17:30:02.490Z,7000
2017-05-31T17:35:02.870Z,7000
2017-05-31T17:40:02.523Z,7000
2017-05-31T17:45:03.067Z,6000
2017-05-31T17:50:03.371Z,5000
2017-05-31T17:55:02.921Z,4000
2017-05-31T18:00:03.359Z,4000
2017-05-31T18:05:02.791Z,4000
2017-05-31T18:10:02.493Z,4000
2017-05-31T18:15:02.975Z,5000
2017-05-31T18:20:02.445Z,3000
2017-05-31T18:25:02.953Z,3000
2017-05-31T18:30:02.586Z,2000
2017-05-31T18:35:03.016Z,1000
2017-05-31T18:40:02.635Z,1000
2017-05-31T18:45:02.606Z,1000
2017-05-31T18:55:02.018Z,1000
2017-05-31T19:05:02.532Z,845
2017-05-31T19:10:03.022Z,749
2017-05-31T19:15:02.472Z,679
2017-05-31T19:20:02.926Z,592
2017-05-31T19:25:02.592Z,508
2017-05-31T19:30:02.860Z,431
2017-05-31T19:35:02.389Z,349
2017-05-31T19:40:02.942Z,269
2017-05-31T19:45:02.327Z,147
2017-05-31T19:50:02.747Z,79
2017-05-31T19:55:03.204Z,66
2017-05-31T20:00:02.596Z,43
2017-05-31T20:05:02.909Z,29
2017-05-31T20:10:03.296Z,15
2017-05-31T20:15:02.650Z,7
2017-05-31T20:20:03.027Z,4
2017-05-31T20:25:02.834Z,2
2017-05-31T20:30:03.208Z,1
2017-05-31T20:35:02.521Z,0
2017-05-31T20:40:03.032Z,0
2017-05-31T20:45:02.418Z,0
2017-05-31T20:50:02.894Z,0
2017-05-31T20:55:02.322Z,0
2017-05-31T21:00:02.709Z,0
2017-05-31T21:05:02.385Z,0
2017-05-31T21:10:02.975Z,0
2017-05-31T21:15:02.362Z,0
2017-05-31T21:20:02.782Z,0
2017-05-31T21:25:03.238Z,0
2017-05-31T21:30:02.705Z,0
2017-05-31T21:35:03.069Z,0
2017-05-31T21:40:02.398Z,0
2017-05-31T21:45:02.745Z,0
2017-05-31T21:50:03.137Z,0
2017-05-31T21:55:02.334Z,0
2017-05-31T22:00:02.660Z,0
2017-05-31T22:05:02.463Z,0
2017-05-31T22:10:02.860Z,0
2017-05-31T22:15:02.907Z,0
2017-05-31T22:20:03.056Z,0
2017-05-31T22:25:02.356Z,0
2017-05-31T22:30:02.698Z,0
2017-05-31T22:35:02.712Z,0
2017-05-31T22:40:02.880Z,0
2017-05-31T22:45:02.362Z,0
2017-05-31T22:50:03.275Z,0
2017-05-31T22:55:02.443Z,0
2017-05-31T23:00:02.674Z,0
2017-05-31T23:05:02.506Z,0
2017-05-31T23:10:03.228Z,0
2017-05-31T23:15:02.423Z,0
2017-05-31T23:20:03.008Z,0
2017-05-31T23:25:02.897Z,0
2017-05-31T23:30:02.758Z,0
2017-05-31T23:35:03.278Z,0
2017-05-31T23:40:03.104Z,0
2017-05-31T23:45:02.916Z,0
2017-05-31T23:50:02.738Z,0
2017-05-31T23:55:03.300Z,0
